Bell Post Hill, Victoria

8:14 PM AEST on August 04, 2015 (GMT +1000)
Hamlyn Heights | | Change Station
CLOSE
Current Station
Personal Weather Station
Location: Geelong, VIC
Elevation: 250 ft
Nearby Weather Stations

Elev 250 ft 38.12 °S, 144.32 °E | Updated 4 minutes ago

Overcast
Overcast
48.7 °F
Feels Like 45 °F
N
8.0
Wind Variable Wind from WNW
Gusts 14.0 mph

Today
High -- | Low -- °F
--% Chance of Precip.
Yesterday
High -- | Low -- °F
Precip. -- in
7:21 AM 5:36 PM
Waning Gibbous, 79% visible
Pressure 29.98 in
Visibility 6.2 miles
Clouds Mostly Cloudy 3400 ft
Overcast 3900 ft
Windchill 45 °F
Dew Point 43 °F
Humidity 81%
Rainfall 0.00 in
Snow Depth Not available.
UV 0.0 out of 12
Pollen Not available.
Air Quality Not available.
Flu Activity Not available.
METAR YMAV 041000Z AUTO 33009KT 9999 // BKN034 OVC039 10/04 Q1015

More Conditions Fewer Conditions

Pressure 29.98 in
Visibility 6.2 miles
Clouds Mostly Cloudy 3400 ft
Overcast 3900 ft
Windchill 45 °F
Dew Point 43 °F
Humidity 81%
Rainfall 0.00 in
Snow Depth Not available.
UV 0.0 out of 12
Pollen Not available.
Air Quality Not available.
Flu Activity Not available.
METAR YMAV 041000Z AUTO 33009KT 9999 // BKN034 OVC039 10/04 Q1015

More Conditions Fewer Conditions

10-Day Weather Forecast

×

Almanac

Astronomy

Aug. 04, 2015 Rise Set
Actual Time
Civil Twilight
Nautical Twilight
Astronomical Twilight
Moon
Length of Visible Light
Length of Day
Tomorrow will be .
, % of the Moon is Illuminated

Today's Extremes

Country Highs Country Lows

Community

WunderPhotos

Upload Photos

1,843,883 photos uploaded!

WunderBlogs® & News

Nearby

Air Quality

  Air Quality AQ Index Pollutant
Not available.

Snow Depth

Station Depth Elevation

Earthquake Activity

City Distance Mag. Time & Date
Minimum magnitude displayed is 2.5.

Coastal Water Temperatures

Place Temperature

Stations

Nearby Weather Stations

Station Location Temp. Windchill Dew Point Humidity Wind Precip. Elev Updated Type